Ramsay, Montana
Current Conditions -  °F | °C
As of 3:53 PM on Thursday 18 Dec 2014 (Local Time) from KBTM Reporting Station
Overcast Overcast  
Wind Chill: 26°   Ceiling: 6000
Heat Index: 26°   Visibility: 10mi
Dew Point: 20°   Wind: 0mph
Humidity: 78%   Direction: NA
Pressure: 29.99"   Gusts: NA
Location:  46°N, 112.68°W
Report Text: KBTM 182253Z AUTO 00000KT 10SM FEW045 OVC060 M03/M07 A2999 RMK AO2 SLP222 T10331067
Loading
Personal Weather Stations






























Interactive Weather Map New forecast layout! Learn more

10-Day Weather Forecast

Advertisements
Track Severe Weather on mobile